x

Molasses Reef, Fl (mlrf1) Weather Station

11:00pm - Thu 24th Apr 2014 All times are EDT. -4 hours from GMT.

  • Wind
  • Sea Temp 80°f
  • Air Temp 78°f
  • Sea Pressure 1016.3mb
  • Molasses Reef, Fl
  • Molasses Reef, Fl

More Historic Weather Station data

Upgrade to MSW Pro to gain access to the past 30 days of data for over 8000 Wavebouys and Weather Stations around the globe.

Join Pro

Comparision Forecast

View Surf forecast
   
Thu 04/24 11:00pm  -  1 mph 1016.3mb 80f 78f
10:00pm 2
mph
1015.9mb 80f 78f
9:00pm  -  1 mph 1015.1mb 80f 78f
8:00pm  -  1 mph 1014.7mb 79f 78f
7:00pm 1
mph
1014.8mb 80f 78f
6:00pm 7
mph
1014.8mb 80f 78f
5:00pm 8 9 mph 1014.9mb 80f 77f
4:00pm 8 9 mph 1015.2mb 80f 77f
3:00pm 3 5 mph 1015.6mb 79f 76f
2:00pm 3 5 mph 1016.1mb 79f 76f
1:00pm 1 2 mph 1016.6mb 79f 75f
12:00pm  -  mph 1016.9mb 80f 75f
11:00am  -  mph 1017mb 80f 75f
10:00am  -  mph 1016.6mb 79f 74f
9:00am 2 3 mph 1016.2mb 79f 73f
8:00am 3 5 mph 1015.9mb 79f 72f
7:00am 2 3 mph 1015.4mb 79f 72f
6:00am 6 8 mph 1014.8mb 78f 72f
5:00am 8 9 mph 1014.2mb 78f 72f
4:00am 7 8 mph 1014.1mb 78f 72f
3:00am 10 11 mph 1013.9mb 78f 72f
2:00am 9 11 mph 1014.3mb 78f 73f
1:00am 9 10 mph 1014.5mb 78f 73f
12:00am 9 11 mph 1014.9mb 78f 73f
Wed 04/23 11:00pm 9 11 mph 1014.9mb 78f 74f
10:00pm 13 14 mph 1014.4mb 79f 75f
9:00pm 14 16 mph 1013.8mb 80f 75f
8:00pm 15 16 mph 1013.1mb 80f 75f
7:00pm 16 18 mph 1012.8mb 80f 76f
6:00pm 17 20 mph 1012.4mb 80f 76f
5:00pm 16 18 mph 1012.6mb 81f 75f
4:00pm 16 18 mph 1013mb 81f 75f
3:00pm 14
mph
1013.7mb 81f 74f
2:00pm 8
mph
1014.2mb 80f 74f
1:00pm 7 8 mph 1014.7mb 80f 74f
12:00pm 8 9 mph 1015mb 80f 73f
11:00am 7 9 mph 1015.3mb 80f 73f
10:00am 8 9 mph 1015.1mb 80f 72f
9:00am 9 10 mph 1014.7mb 79f 71f
8:00am 9 10 mph 1014.2mb 79f 71f
7:00am 9 11 mph 1013.6mb 78f 70f
6:00am 9 11 mph 1013.1mb 78f 70f
5:00am 9 13 mph 1012.8mb 78f 71f
4:00am 11 13 mph 1012.4mb 78f 72f
3:00am 11 14 mph 1012.4mb 78f 74f
2:00am 11 13 mph 1012.7mb 78f 74f
1:00am 11 13 mph 1013.2mb 78f 74f
12:00am 11 13 mph 1013.3mb 78f 75f
Tue 04/22 11:00pm 10 11 mph 1013.3mb 78f 75f
10:00pm 8 9 mph 1012.9mb 78f 76f
9:00pm 9 11 mph 1012.6mb 78f 76f
8:00pm 9 10 mph 1011.9mb 78f 76f
7:00pm 10 11 mph 1011.7mb 78f 76f
6:00pm 10 11 mph 1011.6mb 78f 76f
5:00pm 9 11 mph 1011.9mb 78f 76f
4:00pm 7 8 mph 1012.1mb 78f 76f
3:00pm 8 9 mph 1012.9mb 78f 76f
2:00pm 5 7 mph 1013.6mb 78f 75f
1:00pm 1 2 mph 1013.9mb 78f 76f
12:00pm 2 3 mph 1014.4mb 80f 75f
11:00am 7
mph
1014.7mb 80f 74f
10:00am 8
mph
1014.4mb 79f 73f
9:00am 13
mph
1013.9mb 80f 72f
8:00am 13 14 mph 1013.7mb 79f 71f
7:00am 11
mph
1013.3mb 79f 72f
6:00am 7 8 mph 1012.9mb 78f 73f
5:00am 9 10 mph 1012.8mb 78f 73f
4:00am 9 10 mph 1012.9mb 79f 74f
3:00am  -  1 mph 1013mb 78f 75f
2:00am  -  1 mph 1013.8mb 78f 75f
1:00am 2 5 mph 1014.6mb 78f 75f
12:00am 1 2 mph 1014.9mb 78f 75f
Mon 04/21 11:00pm 1 2 mph 1014.9mb 78f 75f
10:00pm 1 2 mph 1014.6mb 78f 75f
9:00pm 1 2 mph 1014.3mb 78f 75f
8:00pm 1 3 mph 1013.7mb 78f 75f
7:00pm  -  1 mph 1013.5mb 78f 75f
6:00pm 5 7 mph 1013.7mb 79f 75f
5:00pm 5 6 mph 1013.9mb 80f 74f
4:00pm 2 3 mph 1014.3mb 79f 76f
3:00pm 8 9 mph 1014.8mb 79f 76f
2:00pm 7 10 mph 1015.5mb 79f 75f
1:00pm 8 10 mph 1015.9mb 79f 74f
12:00pm 11 14 mph 1016.5mb 79f 72f
11:00am 14 16 mph 1016.9mb 78f 71f
10:00am 14 15 mph 1016.7mb 78f 69f
9:00am 14 17 mph 1016.4mb 78f 69f
8:00am 17 20 mph 1016.3mb 78f 69f
7:00am 16 18 mph 1015.7mb 78f 69f
6:00am 16
mph
1015.3mb 78f 69f
5:00am 16 17 mph 1015mb 78f 71f